Time;durP1;ratioP1;P1;durP2;ratioP2;P2;SDS_P1;SDS_P2;PMS_P1;PMS_P2;Temp;Humidity;BMP_temperature;BMP_pressure;BME280_temperature;BME280_humidity;BME280_pressure;Samples;Min_cycle;Max_cycle;Signal;HPM_P1;HPM_P2
2021/01/06 10:16:35;;;;;;;9.00;6.20;;;;;;;2.40;100.00;98521.31;5221424;22;20557;-84
2021/01/06 10:19:10;;;;;;;7.93;6.00;;;;;;;3.06;100.00;98517.16;5088487;28;39635;-83
2021/01/06 10:21:49;;;;;;;5.60;5.00;;;;;;;3.60;100.00;98518.53;5155509;22;40686;-84
2021/01/06 10:24:39;;;;;;;5.97;4.70;;;;;;;4.08;99.12;98510.44;5093403;27;41762;-86
2021/01/06 10:27:21;;;;;;;5.77;5.17;;;;;;;4.42;95.62;98509.88;5070747;28;41112;-84
2021/01/06 10:29:51;;;;;;;6.33;5.10;;;;;;;4.68;92.94;98499.09;5091691;27;40275;-83
2021/01/06 10:32:47;;;;;;;5.40;4.90;;;;;;;4.89;91.06;98499.03;5202788;22;42202;-86
2021/01/06 10:35:43;;;;;;;5.87;4.50;;;;;;;5.00;89.64;98494.16;5146804;27;42587;-84
2021/01/06 10:38:27;;;;;;;6.17;5.17;;;;;;;5.00;88.14;98492.38;5101985;27;41419;-84
2021/01/06 10:40:58;;;;;;;5.90;5.30;;;;;;;5.09;87.82;98496.34;5148560;27;40487;-85
2021/01/06 10:43:50;;;;;;;7.23;5.40;;;;;;;5.14;87.36;98494.38;5231366;22;41712;-86
2021/01/06 10:46:48;;;;;;;5.57;5.07;;;;;;;5.22;86.91;98505.38;5086818;27;41860;-84
2021/01/06 10:49:54;;;;;;;5.13;4.50;;;;;;;5.28;86.36;98497.22;5159365;22;41152;-83
2021/01/06 10:52:58;;;;;;;6.23;5.43;;;;;;;5.33;85.88;98487.31;5070184;28;39118;-82
2021/01/06 10:55:42;;;;;;;6.27;5.20;;;;;;;5.39;85.15;98494.94;5176709;22;42431;-82
2021/01/06 10:58:21;;;;;;;6.20;5.30;;;;;;;5.42;83.70;98493.94;5114982;27;42280;-84
2021/01/06 11:01:05;;;;;;;7.17;5.70;;;;;;;5.48;84.21;98492.78;5105133;27;42409;-83
2021/01/06 11:03:45;;;;;;;5.47;4.97;;;;;;;5.53;83.42;98488.19;5098480;27;38580;-83
2021/01/06 11:06:22;;;;;;;6.83;5.73;;;;;;;5.59;83.35;98488.72;5125951;27;41152;-83
2021/01/06 11:09:10;;;;;;;7.30;5.63;;;;;;;5.56;82.37;98480.16;5192117;22;43240;-83
2021/01/06 11:11:55;;;;;;;6.53;5.13;;;;;;;5.61;82.73;98489.50;5079526;28;41208;-85
2021/01/06 11:14:43;;;;;;;6.63;5.90;;;;;;;5.61;82.20;98493.91;5086757;28;38698;-84
2021/01/06 11:17:38;;;;;;;6.97;5.83;;;;;;;5.62;82.74;98488.56;5086572;28;41016;-85
2021/01/06 11:20:27;;;;;;;6.07;5.10;;;;;;;5.54;82.46;98466.25;5172060;22;42679;-84
2021/01/06 11:23:24;;;;;;;6.73;5.90;;;;;;;5.69;82.15;98489.13;5097203;27;41291;-84
2021/01/06 11:25:53;;;;;;;6.17;5.07;;;;;;;5.69;81.52;98487.34;5104013;27;38855;-84
2021/01/06 11:28:30;;;;;;;7.27;5.73;;;;;;;5.64;81.85;98462.25;5094425;28;42146;-86
2021/01/06 11:31:19;;;;;;;6.00;5.00;;;;;;;5.74;81.58;98480.09;5174004;22;42838;-84
2021/01/06 11:33:49;;;;;;;6.20;5.07;;;;;;;5.72;80.29;98483.72;5073721;28;41098;-85
2021/01/06 11:36:30;;;;;;;5.80;5.17;;;;;;;5.69;80.50;98474.19;5074052;28;39328;-83
2021/01/06 11:39:00;;;;;;;4.70;4.20;;;;;;;5.70;80.37;98472.44;5074203;28;41731;-84
2021/01/06 11:44:43;;;;;;;7.07;5.67;;;;;;;5.73;80.13;98472.28;5031388;28;40337;-84
2021/01/06 11:47:30;;;;;;;6.20;4.87;;;;;;;5.76;80.11;98464.25;5032268;28;39097;-83
2021/01/06 11:50:02;;;;;;;5.50;4.70;;;;;;;5.75;80.36;98460.78;5033625;28;42078;-83
2021/01/06 11:52:43;;;;;;;6.33;5.10;;;;;;;5.74;80.12;98458.22;5048936;28;42581;-84
2021/01/06 11:55:32;;;;;;;5.50;4.70;;;;;;;5.77;79.74;98468.59;5173320;22;41709;-83
2021/01/06 11:58:13;;;;;;;5.27;4.60;;;;;;;5.77;79.76;98463.34;5065168;28;39136;-83
2021/01/06 12:01:07;;;;;;;5.33;4.33;;;;;;;5.78;79.31;98465.03;5048268;28;40805;-84
2021/01/06 12:03:59;;;;;;;5.10;4.10;;;;;;;5.77;79.45;98456.31;5049264;28;41815;-84
2021/01/06 12:06:41;;;;;;;4.97;4.17;;;;;;;5.81;79.22;98456.16;5125768;22;41217;-83
2021/01/06 12:09:22;;;;;;;5.47;4.83;;;;;;;5.84;79.04;98454.22;5025892;28;40319;-83
2021/01/06 12:11:59;;;;;;;5.87;4.27;;;;;;;5.85;78.71;98445.41;5052191;28;42001;-83
2021/01/06 12:14:35;;;;;;;5.20;4.40;;;;;;;5.95;78.45;98435.31;5051365;28;43219;-83
2021/01/06 12:17:19;;;;;;;5.73;4.73;;;;;;;6.06;78.32;98436.47;5125425;22;41326;-84
2021/01/06 12:19:59;;;;;;;5.40;4.87;;;;;;;6.06;77.75;98417.22;5052683;28;39020;-85
2021/01/06 12:22:26;;;;;;;5.63;4.43;;;;;;;6.22;77.98;98422.53;5026902;28;40610;-83
2021/01/06 12:25:27;;;;;;;5.97;4.67;;;;;;;6.37;76.79;98443.63;5035256;28;45000;-84
2021/01/06 12:28:03;;;;;;;5.70;4.77;;;;;;;6.46;77.00;98442.28;5037362;28;41863;-83
2021/01/06 12:30:50;;;;;;;5.27;4.70;;;;;;;6.56;76.63;98434.75;5166580;22;39761;-83
2021/01/06 12:33:29;;;;;;;4.50;4.10;;;;;;;6.59;76.72;98432.81;5076083;28;41625;-84
2021/01/06 12:36:15;;;;;;;5.50;4.77;;;;;;;6.57;76.62;98426.78;5076226;28;42895;-83
2021/01/06 12:38:44;;;;;;;4.83;4.40;;;;;;;6.53;76.38;98427.91;5073960;28;41076;-85
2021/01/06 12:41:17;;;;;;;5.53;4.80;;;;;;;6.53;76.62;98435.81;5177624;22;40650;-85
2021/01/06 12:43:48;;;;;;;4.67;4.20;;;;;;;6.50;76.76;98425.44;5055378;28;40898;-85
2021/01/06 12:46:35;;;;;;;5.23;4.73;;;;;;;6.39;76.42;98415.47;5056212;28;41905;-83
2021/01/06 12:49:18;;;;;;;5.57;4.63;;;;;;;6.24;76.23;98400.50;5053672;28;41590;-84
2021/01/06 12:52:25;;;;;;;6.37;5.20;;;;;;;6.39;76.16;98425.16;5160374;22;38845;-85
2021/01/06 12:55:03;;;;;;;6.10;5.10;;;;;;;6.32;76.39;98413.22;5009791;28;40033;-84
2021/01/06 12:57:42;;;;;;;5.17;4.67;;;;;;;6.35;76.35;98419.19;5011725;28;44391;-84
2021/01/06 13:00:23;;;;;;;5.13;4.60;;;;;;;6.47;76.38;98431.69;4996353;28;41338;-84
2021/01/06 13:03:06;;;;;;;5.23;4.60;;;;;;;6.56;75.87;98435.63;5012627;28;39270;-84
2021/01/06 13:05:33;;;;;;;6.10;4.80;;;;;;;6.48;75.88;98419.41;5152137;22;41514;-84
2021/01/06 13:08:02;;;;;;;5.73;4.87;;;;;;;6.60;75.74;98433.69;5015745;28;41660;-84
2021/01/06 13:10:39;;;;;;;5.70;5.10;;;;;;;6.64;75.53;98446.59;5023966;28;41228;-84
2021/01/06 13:13:31;;;;;;;5.40;4.83;;;;;;;6.65;75.62;98447.44;5032010;28;39289;-84
2021/01/06 13:16:03;;;;;;;5.60;5.00;;;;;;;6.61;75.74;98446.75;5133851;22;42208;-84
2021/01/06 13:18:43;;;;;;;5.97;4.87;;;;;;;6.59;75.96;98453.88;5036066;28;41897;-83
2021/01/06 13:21:22;;;;;;;6.57;5.40;;;;;;;6.59;76.01;98451.25;5051260;28;42452;-84
2021/01/06 13:24:03;;;;;;;5.23;4.47;;;;;;;6.57;75.69;98442.56;5050034;28;39813;-84
2021/01/06 13:29:35;;;;;;;5.20;4.70;;;;;;;6.52;76.05;98452.50;5026436;28;41713;-82
2021/01/06 13:32:13;;;;;;;4.73;4.23;;;;;;;6.51;75.70;98450.81;5018692;28;41243;-85
2021/01/06 13:34:48;;;;;;;5.93;4.90;;;;;;;6.49;75.31;98453.50;5005536;28;39344;-84
2021/01/06 13:37:39;;;;;;;4.77;4.23;;;;;;;6.46;75.26;98447.56;5012688;28;40699;-84
2021/01/06 13:40:14;;;;;;;5.10;4.60;;;;;;;6.45;75.63;98440.59;5120676;22;42054;-83
2021/01/06 13:43:00;;;;;;;4.80;4.27;;;;;;;6.46;75.44;98442.28;5039145;28;42257;-82
2021/01/06 13:45:41;;;;;;;4.13;3.67;;;;;;;6.45;75.81;98445.84;5063916;28;38958;-85
2021/01/06 13:48:37;;;;;;;4.50;4.00;;;;;;;6.33;75.45;98425.44;5040928;28;40699;-85
2021/01/06 13:51:11;;;;;;;5.37;4.07;;;;;;;6.35;75.77;98434.13;5114615;22;42894;-83
2021/01/06 13:53:50;;;;;;;10.23;7.43;;;;;;;6.40;75.52;98445.25;5020235;28;41075;-89
2021/01/06 13:56:24;;;;;;;9.03;6.90;;;;;;;6.35;75.48;98445.50;5038719;28;40074;-87
2021/01/06 13:59:06;;;;;;;5.67;4.67;;;;;;;6.25;75.76;98438.16;5032155;28;41577;-87
2021/01/06 14:01:42;;;;;;;5.20;4.50;;;;;;;6.27;75.71;98463.47;5080519;22;41966;31
2021/01/06 14:04:16;;;;;;;6.33;4.23;;;;;;;6.22;75.72;98456.72;5040673;28;41679;-84
2021/01/06 14:06:54;;;;;;;5.37;4.17;;;;;;;6.21;75.67;98458.50;5051942;28;39256;-80
2021/01/06 14:09:32;;;;;;;4.33;3.93;;;;;;;6.19;75.70;98462.13;5051821;28;40611;-79
2021/01/06 14:12:24;;;;;;;4.33;3.90;;;;;;;6.09;75.54;98446.81;5033387;28;41951;-79
2021/01/06 14:15:02;;;;;;;4.20;3.80;;;;;;;6.13;76.00;98455.41;5151957;22;42312;-80
2021/01/06 14:17:45;;;;;;;4.73;3.43;;;;;;;6.10;76.01;98461.66;5055340;28;39880;-82
2021/01/06 14:20:46;;;;;;;4.33;3.93;;;;;;;6.17;76.40;98461.38;5055371;28;41979;-80
2021/01/06 14:23:27;;;;;;;4.57;4.00;;;;;;;6.12;76.15;98457.19;5050952;28;42883;-80
2021/01/06 14:26:00;;;;;;;4.80;4.30;;;;;;;6.12;76.13;98462.44;5126361;22;42091;-82
2021/01/06 14:28:35;;;;;;;5.20;4.53;;;;;;;6.08;76.25;98460.03;5055374;28;38948;-80
2021/01/06 14:31:11;;;;;;;4.30;3.90;;;;;;;6.02;76.58;98458.59;5051777;28;40919;-81
2021/01/06 14:33:49;;;;;;;6.43;4.50;;;;;;;6.04;76.39;98462.00;5044880;28;43510;-80
2021/01/06 14:39:35;;;;;;;4.33;3.93;;;;;;;5.98;76.53;98470.19;5005097;28;38469;-80
2021/01/06 14:42:14;;;;;;;4.60;4.03;;;;;;;5.90;76.71;98474.97;5006755;28;42415;-80
2021/01/06 14:45:17;;;;;;;6.47;4.83;;;;;;;5.85;76.85;98481.34;4992075;28;41993;-80
2021/01/06 14:51:13;;;;;;;6.20;5.20;;;;;;;5.74;77.07;98484.50;4986983;28;40268;-80
2021/01/06 14:53:47;;;;;;;5.80;4.70;;;;;;;5.70;77.14;98486.41;4978533;28;40984;-81
2021/01/06 14:56:23;;;;;;;7.80;6.03;;;;;;;5.65;77.27;98482.34;4970965;28;42543;-80
2021/01/06 14:59:23;;;;;;;6.27;5.43;;;;;;;5.60;77.43;98486.94;4956535;28;41336;-80
2021/01/06 15:02:17;;;;;;;7.47;5.50;;;;;;;5.54;77.59;98482.00;5142493;22;39247;-80
2021/01/06 15:04:48;;;;;;;7.80;5.50;;;;;;;5.56;77.50;98494.16;5057767;28;40747;-81
2021/01/06 15:07:33;;;;;;;6.30;4.97;;;;;;;5.54;77.23;98487.25;5065911;28;42751;-80
2021/01/06 15:10:09;;;;;;;6.27;4.93;;;;;;;5.40;77.40;98470.38;5053738;28;42234;-81
2021/01/06 15:12:41;;;;;;;5.80;5.07;;;;;;;5.43;77.43;98490.41;5130053;22;39091;-80
2021/01/06 15:15:24;;;;;;;6.07;4.93;;;;;;;5.35;77.62;98488.13;5055281;28;40994;-81
2021/01/06 15:17:52;;;;;;;6.10;5.20;;;;;;;5.22;77.63;98466.00;5054022;28;43122;-82
2021/01/06 15:20:25;;;;;;;5.70;4.87;;;;;;;5.17;77.65;98459.28;5048829;28;42197;-81
2021/01/06 15:26:03;;;;;;;7.20;5.20;;;;;;;5.22;77.85;98475.63;4962758;28;42603;-80
2021/01/06 15:32:24;;;;;;;5.20;4.60;;;;;;;5.17;77.57;98489.00;5292826;22;20239;-80
2021/01/06 15:34:52;;;;;;;6.37;5.03;;;;;;;5.12;77.47;98485.72;5035410;28;38729;-80
